createdAt,value
2022-10-02T00:00:01.350Z,99243.81
2022-10-02T00:02:54.524Z,99221.47
2022-10-02T00:05:33.295Z,99236.84
2022-10-02T00:08:30.304Z,99257.84
2022-10-02T00:11:06.555Z,99252.88
2022-10-02T00:13:51.797Z,99230.31
2022-10-02T00:16:37.101Z,99234.84
2022-10-02T00:19:04.448Z,99239.03
2022-10-02T00:22:02.867Z,99254.06
2022-10-02T00:24:45.749Z,99258.44
2022-10-02T00:27:39.301Z,99243.56
2022-10-02T00:30:11.086Z,99228.78
2022-10-02T00:32:52.285Z,99236.00
2022-10-02T00:36:05.528Z,99240.53
2022-10-02T00:38:44.214Z,99251.53
2022-10-02T00:41:57.993Z,99258.34
2022-10-02T00:44:54.346Z,99272.94
2022-10-02T00:47:46.067Z,99272.03
2022-10-02T00:50:47.676Z,99260.19
2022-10-02T00:53:49.320Z,99247.75
2022-10-02T00:56:42.108Z,99248.69
2022-10-02T00:59:50.171Z,99258.34
2022-10-02T01:02:44.805Z,99252.38
2022-10-02T01:05:13.681Z,99232.16
2022-10-02T01:07:43.829Z,99240.72
2022-10-02T01:10:12.649Z,99250.03
2022-10-02T01:12:40.377Z,99245.75
2022-10-02T01:15:20.583Z,99227.34
2022-10-02T01:17:51.057Z,99270.69
2022-10-02T01:20:32.254Z,99261.84
2022-10-02T01:23:19.868Z,99262.88
2022-10-02T01:25:47.062Z,99237.72
2022-10-02T01:28:14.033Z,99234.16
2022-10-02T01:30:44.430Z,99263.06
2022-10-02T01:33:13.606Z,99244.50
2022-10-02T01:35:41.202Z,99253.13
2022-10-02T01:38:16.100Z,99242.16
2022-10-02T01:40:43.300Z,99237.94
2022-10-02T01:43:19.299Z,99255.66
2022-10-02T01:46:01.736Z,99256.25
2022-10-02T01:48:47.516Z,99248.16
2022-10-02T01:51:35.438Z,99256.31
2022-10-02T01:54:27.958Z,99257.84
2022-10-02T01:57:15.289Z,99265.03
2022-10-02T02:00:19.029Z,99266.91
2022-10-02T02:03:39.349Z,99262.03
2022-10-02T02:06:18.494Z,99262.50
2022-10-02T02:09:01.677Z,99260.34
2022-10-02T02:11:29.366Z,99250.34
2022-10-02T02:14:32.404Z,99237.78
2022-10-02T02:17:11.521Z,99267.41
2022-10-02T02:19:47.277Z,99263.84
2022-10-02T02:22:28.246Z,99263.09
2022-10-02T02:24:58.014Z,99286.03
2022-10-02T02:27:34.913Z,99271.06
2022-10-02T02:30:07.760Z,99278.56
2022-10-02T02:32:41.056Z,99277.44
2022-10-02T02:35:17.305Z,99263.34
2022-10-02T02:37:46.805Z,99263.44
2022-10-02T02:40:22.375Z,99260.75
2022-10-02T02:43:01.951Z,99275.13
2022-10-02T02:45:36.485Z,99271.44
2022-10-02T02:48:10.336Z,99254.56
2022-10-02T02:50:44.621Z,99251.97
2022-10-02T02:53:31.921Z,99260.84
2022-10-02T02:56:01.942Z,99263.38
2022-10-02T02:58:51.933Z,99269.75
2022-10-02T03:01:18.811Z,99253.53
2022-10-02T03:03:45.702Z,99255.97
2022-10-02T03:06:18.931Z,99276.97
2022-10-02T03:08:47.620Z,99269.34
2022-10-02T03:11:50.795Z,99284.00
2022-10-02T03:14:45.682Z,99290.06
2022-10-02T03:17:36.633Z,99295.09
2022-10-02T03:20:28.485Z,99285.44
2022-10-02T03:23:30.484Z,99285.03
2022-10-02T03:26:19.267Z,99284.47
2022-10-02T03:28:57.071Z,99271.75
2022-10-02T03:31:28.671Z,99273.28
2022-10-02T03:33:59.334Z,99282.09
2022-10-02T03:36:26.857Z,99279.41
2022-10-02T03:39:25.956Z,99275.31
2022-10-02T03:41:46.642Z,99266.91
2022-10-02T03:44:13.470Z,99261.84
2022-10-02T03:46:40.675Z,99263.47
2022-10-02T03:49:07.650Z,99273.09
2022-10-02T03:51:34.467Z,99258.34
2022-10-02T03:54:01.557Z,99247.34
2022-10-02T03:56:30.905Z,99274.88
2022-10-02T03:59:03.328Z,99263.69
2022-10-02T04:01:39.704Z,99255.91
2022-10-02T04:04:18.607Z,99276.78
2022-10-02T04:06:52.146Z,99260.78
2022-10-02T04:09:26.020Z,99276.69
2022-10-02T04:12:28.179Z,99267.22
2022-10-02T04:15:05.017Z,99272.84
2022-10-02T04:17:44.871Z,99289.97
2022-10-02T04:20:33.188Z,99274.72
2022-10-02T04:23:25.907Z,99257.75
2022-10-02T04:26:01.163Z,99271.34
2022-10-02T04:28:39.097Z,99297.59
2022-10-02T04:31:13.354Z,99277.44
2022-10-02T04:33:40.845Z,99267.72
2022-10-02T04:36:38.546Z,99286.03
2022-10-02T04:39:20.398Z,99301.06
2022-10-02T04:42:15.241Z,99281.84
2022-10-02T04:45:23.272Z,99300.13
2022-10-02T04:48:04.715Z,99295.94
2022-10-02T04:51:16.280Z,99288.06
2022-10-02T04:54:13.487Z,99289.72
2022-10-02T04:57:21.346Z,99294.91
2022-10-02T05:00:16.316Z,99288.06
2022-10-02T05:03:20.297Z,99270.41
2022-10-02T05:06:17.436Z,99285.44
2022-10-02T05:09:20.913Z,99280.31
2022-10-02T05:12:11.318Z,99289.06
2022-10-02T05:15:09.815Z,99281.09
2022-10-02T05:18:22.494Z,99271.94
2022-10-02T05:21:31.313Z,99268.66
2022-10-02T05:24:10.122Z,99270.78
2022-10-02T05:26:56.479Z,99256.25
2022-10-02T05:30:11.178Z,99276.66
2022-10-02T05:33:08.872Z,99266.06
2022-10-02T05:36:01.581Z,99265.13
2022-10-02T05:38:34.008Z,99261.03
2022-10-02T05:41:18.917Z,99266.38
2022-10-02T05:43:58.204Z,99247.94
2022-10-02T05:46:35.828Z,99270.84
2022-10-02T05:49:24.292Z,99277.81
2022-10-02T05:52:06.851Z,99275.88
2022-10-02T05:54:50.060Z,99258.34
2022-10-02T05:57:26.286Z,99276.56
2022-10-02T06:00:08.482Z,99274.94
2022-10-02T06:03:04.378Z,99283.53
2022-10-02T06:06:02.485Z,99280.06
2022-10-02T06:08:41.416Z,99277.91
2022-10-02T06:11:18.576Z,99274.75
2022-10-02T06:14:06.779Z,99286.03
2022-10-02T06:16:54.180Z,99290.56
2022-10-02T06:19:37.303Z,99282.53
2022-10-02T06:22:14.135Z,99287.53
2022-10-02T06:24:46.612Z,99307.69
2022-10-02T06:27:21.917Z,99302.72
2022-10-02T06:29:57.136Z,99302.66
2022-10-02T06:32:41.137Z,99296.88
2022-10-02T06:35:15.415Z,99263.53
2022-10-02T06:38:22.403Z,99285.03
2022-10-02T06:41:22.021Z,99281.50
2022-10-02T06:44:09.613Z,99272.63
2022-10-02T06:47:00.678Z,99260.38
2022-10-02T06:50:07.266Z,99243.63
2022-10-02T06:52:49.526Z,99243.41
2022-10-02T06:55:49.263Z,99245.66
2022-10-02T06:58:21.625Z,99241.03
2022-10-02T07:01:36.179Z,99231.19
2022-10-02T07:04:16.779Z,99221.06
2022-10-02T07:07:36.621Z,99238.78
2022-10-02T07:10:30.093Z,99226.56
2022-10-02T07:13:26.699Z,99207.28
2022-10-02T07:16:27.209Z,99211.31
2022-10-02T07:19:10.832Z,99223.06
2022-10-02T07:21:49.372Z,99219.88
2022-10-02T07:25:10.177Z,99188.91
2022-10-02T07:28:06.407Z,99200.47
2022-10-02T07:30:49.639Z,99189.84
2022-10-02T07:33:36.219Z,99188.06
2022-10-02T07:36:13.431Z,99187.31
2022-10-02T07:38:57.989Z,99179.59
2022-10-02T07:41:47.746Z,99183.78
2022-10-02T07:44:17.135Z,99176.81
2022-10-02T07:47:04.253Z,99186.47
2022-10-02T07:50:06.988Z,99178.94
2022-10-02T07:52:58.743Z,99186.78
2022-10-02T07:55:26.790Z,99192.50
2022-10-02T07:58:23.708Z,99163.91
2022-10-02T08:00:59.477Z,99177.00
2022-10-02T08:03:33.366Z,99198.88
2022-10-02T08:06:00.908Z,99162.63
2022-10-02T08:08:52.821Z,99182.69
2022-10-02T08:11:38.345Z,99177.41
2022-10-02T08:14:19.710Z,99178.91
2022-10-02T08:16:51.771Z,99175.19
2022-10-02T08:19:41.336Z,99179.19
2022-10-02T08:22:28.909Z,99212.88
2022-10-02T08:25:02.074Z,99209.50
2022-10-02T08:27:56.397Z,99200.03
2022-10-02T08:30:23.526Z,99198.75
2022-10-02T08:32:50.435Z,99192.88
2022-10-02T08:35:19.739Z,99211.28
2022-10-02T08:38:12.422Z,99210.34
2022-10-02T08:41:08.759Z,99193.06
2022-10-02T08:44:23.264Z,99195.28
2022-10-02T08:47:36.523Z,99179.94
2022-10-02T08:50:30.075Z,99185.25
2022-10-02T08:53:27.219Z,99185.66
2022-10-02T08:56:14.442Z,99174.88
2022-10-02T08:59:04.459Z,99178.41
2022-10-02T09:01:55.239Z,99175.91
2022-10-02T09:04:47.802Z,99169.47
2022-10-02T09:08:08.225Z,99165.75
2022-10-02T09:11:08.900Z,99159.06
2022-10-02T09:13:48.504Z,99152.94
2022-10-02T09:16:41.203Z,99140.47
2022-10-02T09:19:30.545Z,99146.94
2022-10-02T09:22:59.245Z,99141.56
2022-10-02T09:25:42.107Z,99136.47
2022-10-02T09:28:36.493Z,99135.22
2022-10-02T09:31:30.143Z,99135.78
2022-10-02T09:34:55.321Z,99133.72
2022-10-02T09:37:54.235Z,99137.91
2022-10-02T09:41:09.220Z,99130.09
2022-10-02T09:44:06.133Z,99109.97
2022-10-02T09:46:51.139Z,99117.31
2022-10-02T09:49:51.833Z,99116.00
2022-10-02T09:53:06.235Z,99103.56
2022-10-02T09:56:22.449Z,99102.16
2022-10-02T09:59:23.183Z,99114.88
2022-10-02T10:02:07.355Z,99097.56
2022-10-02T10:05:08.927Z,99119.91
2022-10-02T10:08:00.413Z,99122.31
2022-10-02T10:11:18.491Z,99114.03
2022-10-02T10:14:25.934Z,99120.53
2022-10-02T10:17:50.810Z,99111.06
2022-10-02T10:20:31.021Z,99119.06
2022-10-02T10:23:26.773Z,99118.88
2022-10-02T10:26:14.985Z,99142.25
2022-10-02T10:29:00.387Z,99140.94
2022-10-02T10:31:43.884Z,99160.63
2022-10-02T10:34:48.181Z,99150.09
2022-10-02T10:37:57.910Z,99154.94
2022-10-02T10:40:47.073Z,99157.00
2022-10-02T10:43:53.443Z,99142.84
2022-10-02T10:47:06.094Z,99140.66
2022-10-02T10:49:44.885Z,99149.91
2022-10-02T10:52:56.248Z,99145.50
2022-10-02T10:55:50.220Z,99135.75
2022-10-02T10:58:57.417Z,99141.31
2022-10-02T11:01:49.406Z,99126.22
2022-10-02T11:04:57.608Z,99142.63
2022-10-02T11:08:06.113Z,99153.50
2022-10-02T11:11:19.978Z,99164.66
2022-10-02T11:14:09.496Z,99154.91
2022-10-02T11:17:15.561Z,99155.47
2022-10-02T11:20:31.641Z,99176.75
2022-10-02T11:23:11.244Z,99180.09
2022-10-02T11:26:01.979Z,99175.91
2022-10-02T11:29:04.363Z,99161.09
2022-10-02T11:32:18.013Z,99183.25
2022-10-02T11:35:19.475Z,99181.00
2022-10-02T11:38:41.249Z,99173.56
2022-10-02T11:41:29.279Z,99171.03
2022-10-02T11:44:46.487Z,99179.25
2022-10-02T11:48:12.331Z,99158.47
2022-10-02T11:51:10.329Z,99166.19
2022-10-02T11:54:07.863Z,99162.19
2022-10-02T11:57:00.679Z,99169.25
2022-10-02T12:00:06.705Z,99177.84
2022-10-02T12:03:01.649Z,99161.47
2022-10-02T12:05:58.024Z,99177.56
2022-10-02T12:09:06.237Z,99185.59
2022-10-02T12:11:43.793Z,99164.44
2022-10-02T12:14:13.606Z,99178.69
2022-10-02T12:17:01.807Z,99161.19
2022-10-02T12:20:23.780Z,99151.59
2022-10-02T12:23:36.335Z,99147.31
2022-10-02T12:26:50.206Z,99146.94
2022-10-02T12:29:48.470Z,99106.63
2022-10-02T12:32:55.514Z,99155.22
2022-10-02T12:35:46.160Z,99156.97
2022-10-02T12:39:01.155Z,99157.91
2022-10-02T12:41:56.052Z,99170.19
2022-10-02T12:44:51.483Z,99164.81
2022-10-02T12:48:15.892Z,99163.97
2022-10-02T12:51:14.345Z,99155.72
2022-10-02T12:54:10.751Z,99162.94
2022-10-02T12:57:39.360Z,99173.28
2022-10-02T13:00:15.348Z,99176.38
2022-10-02T13:03:20.158Z,99178.59
2022-10-02T13:06:17.000Z,99182.88
2022-10-02T13:09:05.959Z,99163.78
2022-10-02T13:12:04.109Z,99181.69
2022-10-02T13:15:07.203Z,99186.50
2022-10-02T13:17:57.366Z,99189.22
2022-10-02T13:20:53.850Z,99150.88
2022-10-02T13:23:41.019Z,99187.34
2022-10-02T13:26:24.111Z,99179.53
2022-10-02T13:29:54.357Z,99191.47
2022-10-02T13:32:51.430Z,99198.09
2022-10-02T13:36:00.189Z,99193.69
2022-10-02T13:38:59.959Z,99190.44
2022-10-02T13:41:43.640Z,99204.69
2022-10-02T13:44:30.987Z,99169.59
2022-10-02T13:47:33.687Z,99170.34
2022-10-02T13:50:20.771Z,99185.59
2022-10-02T13:53:04.792Z,99198.91
2022-10-02T13:55:48.039Z,99166.69
2022-10-02T13:58:28.756Z,99192.22
2022-10-02T14:01:22.191Z,99185.69
2022-10-02T14:04:07.361Z,99197.97
2022-10-02T14:06:48.848Z,99203.50
2022-10-02T14:09:39.086Z,99196.13
2022-10-02T14:12:33.618Z,99190.91
2022-10-02T14:15:16.205Z,99188.66
2022-10-02T14:18:53.431Z,99211.69
2022-10-02T14:21:32.271Z,99202.25
2022-10-02T14:25:05.416Z,99196.13
2022-10-02T14:28:23.396Z,99192.56
2022-10-02T14:31:13.963Z,99198.09
2022-10-02T14:34:15.209Z,99181.59
2022-10-02T14:37:16.630Z,99198.34
2022-10-02T14:39:45.591Z,99189.97
2022-10-02T14:42:31.405Z,99187.75
2022-10-02T14:45:25.983Z,99181.22
2022-10-02T14:48:35.698Z,99171.63
2022-10-02T14:51:40.079Z,99179.84
2022-10-02T14:54:29.484Z,99185.78
2022-10-02T14:57:24.265Z,99183.09
2022-10-02T15:00:18.118Z,99181.50
2022-10-02T15:03:22.706Z,99176.56
2022-10-02T15:06:22.169Z,99182.16
2022-10-02T15:09:20.368Z,99201.16
2022-10-02T15:12:10.986Z,99207.22
2022-10-02T15:15:20.848Z,99210.63
2022-10-02T15:18:20.105Z,99207.50
2022-10-02T15:21:18.837Z,99217.63
2022-10-02T15:23:51.070Z,99212.88
2022-10-02T15:26:26.647Z,99226.66
2022-10-02T15:29:34.218Z,99236.16
2022-10-02T15:32:31.221Z,99240.78
2022-10-02T15:35:36.532Z,99246.19
2022-10-02T15:38:42.420Z,99239.75
2022-10-02T15:41:12.197Z,99266.22
2022-10-02T15:44:05.012Z,99265.19
2022-10-02T15:46:56.620Z,99267.41
2022-10-02T15:50:00.042Z,99271.78
2022-10-02T15:52:36.937Z,99260.88
2022-10-02T15:55:21.109Z,99248.19
2022-10-02T15:58:44.540Z,99261.72
2022-10-02T16:01:57.922Z,99249.88
2022-10-02T16:05:02.433Z,99250.31
2022-10-02T16:07:53.798Z,99249.50
2022-10-02T16:10:50.509Z,99249.13
2022-10-02T16:13:51.448Z,99251.75
2022-10-02T16:16:36.578Z,99266.28
2022-10-02T16:19:23.362Z,99270.53
2022-10-02T16:22:15.687Z,99268.13
2022-10-02T16:25:20.210Z,99263.09
2022-10-02T16:28:15.877Z,99266.63
2022-10-02T16:31:24.074Z,99278.75
2022-10-02T16:34:04.781Z,99265.47
2022-10-02T16:37:09.252Z,99279.84
2022-10-02T16:39:46.668Z,99270.59
2022-10-02T16:42:36.956Z,99253.91
2022-10-02T16:45:25.767Z,99276.66
2022-10-02T16:48:07.640Z,99262.31
2022-10-02T16:51:01.657Z,99272.34
2022-10-02T16:53:54.092Z,99277.94
2022-10-02T16:56:32.872Z,99282.78
2022-10-02T16:59:11.185Z,99295.06
2022-10-02T17:02:05.527Z,99288.94
2022-10-02T17:04:44.889Z,99309.38
2022-10-02T17:08:00.867Z,99332.63
2022-10-02T17:11:08.977Z,99346.75
2022-10-02T17:14:21.934Z,99371.03
2022-10-02T17:16:55.726Z,99373.91
2022-10-02T17:19:52.382Z,99370.03
2022-10-02T17:22:42.115Z,99377.09
2022-10-02T17:25:30.502Z,99379.78
2022-10-02T17:28:20.319Z,99379.94
2022-10-02T17:31:08.206Z,99381.81
2022-10-02T17:34:22.121Z,99350.66
2022-10-02T17:37:13.129Z,99376.34
2022-10-02T17:40:17.024Z,99384.56
2022-10-02T17:43:04.539Z,99379.63
2022-10-02T17:46:19.795Z,99378.69
2022-10-02T17:49:14.181Z,99378.09
2022-10-02T17:52:42.874Z,99374.81
2022-10-02T17:56:05.533Z,99384.31
2022-10-02T17:58:43.764Z,99375.41
2022-10-02T18:01:25.559Z,99405.25
2022-10-02T18:04:24.547Z,99404.31
2022-10-02T18:07:32.502Z,99399.56
2022-10-02T18:10:43.326Z,99412.25
2022-10-02T18:13:42.478Z,99407.84
2022-10-02T18:16:18.638Z,99408.88
2022-10-02T18:19:14.851Z,99405.09
2022-10-02T18:22:00.095Z,99412.59
2022-10-02T18:24:47.965Z,99419.88
2022-10-02T18:27:48.798Z,99414.34
2022-10-02T18:30:20.635Z,99412.56
2022-10-02T18:33:07.585Z,99404.09
2022-10-02T18:35:47.125Z,99412.50
2022-10-02T18:39:27.333Z,99407.44
2022-10-02T18:42:18.116Z,99407.38
2022-10-02T18:44:53.536Z,99422.34
2022-10-02T18:47:37.956Z,99413.72
2022-10-02T18:50:35.656Z,99412.19
2022-10-02T18:53:48.455Z,99425.97
2022-10-02T18:56:42.857Z,99430.78
2022-10-02T18:59:19.053Z,99454.53
2022-10-02T19:01:55.382Z,99436.94
2022-10-02T19:04:32.257Z,99464.63
2022-10-02T19:07:18.595Z,99459.28
2022-10-02T19:09:46.750Z,99466.09
2022-10-02T19:12:25.266Z,99461.31
2022-10-02T19:15:15.545Z,99485.03
2022-10-02T19:17:58.686Z,99479.97
2022-10-02T19:20:46.686Z,99494.81
2022-10-02T19:23:39.572Z,99471.84
2022-10-02T19:26:26.820Z,99464.56
2022-10-02T19:29:02.078Z,99450.00
2022-10-02T19:31:31.409Z,99456.50
2022-10-02T19:34:03.426Z,99463.53
2022-10-02T19:36:42.453Z,99459.56
2022-10-02T19:39:21.961Z,99471.69
2022-10-02T19:41:49.014Z,99469.47
2022-10-02T19:44:28.182Z,99486.28
2022-10-02T19:46:58.347Z,99475.28
2022-10-02T19:49:30.487Z,99473.44
2022-10-02T19:51:58.013Z,99454.09
2022-10-02T19:54:37.671Z,99486.88
2022-10-02T19:57:15.467Z,99485.50
2022-10-02T19:59:48.550Z,99473.78
2022-10-02T20:02:27.913Z,99501.50
2022-10-02T20:04:59.500Z,99508.94
2022-10-02T20:07:31.069Z,99506.19
2022-10-02T20:10:11.239Z,99495.06
2022-10-02T20:12:56.560Z,99514.56
2022-10-02T20:16:06.277Z,99510.84
2022-10-02T20:18:33.260Z,99511.88
2022-10-02T20:21:15.759Z,99515.31
2022-10-02T20:23:49.748Z,99517.50
2022-10-02T20:26:21.567Z,99533.03
2022-10-02T20:28:57.975Z,99534.59
2022-10-02T20:32:03.166Z,99520.59
2022-10-02T20:34:44.201Z,99530.84
2022-10-02T20:37:29.446Z,99549.84
2022-10-02T20:40:20.198Z,99534.59
2022-10-02T20:43:09.897Z,99566.97
2022-10-02T20:45:46.130Z,99570.66
2022-10-02T20:49:08.342Z,99575.72
2022-10-02T20:51:48.221Z,99586.13
2022-10-02T20:54:28.616Z,99585.28
2022-10-02T20:57:38.130Z,99598.81
2022-10-02T21:00:20.505Z,99605.13
2022-10-02T21:03:34.130Z,99600.50
2022-10-02T21:07:05.762Z,99608.31
2022-10-02T21:09:58.421Z,99594.22
2022-10-02T21:13:09.088Z,99613.97
2022-10-02T21:16:09.662Z,99614.69
2022-10-02T21:19:15.372Z,99624.56
2022-10-02T21:22:01.565Z,99634.81
2022-10-02T21:25:08.758Z,99647.03
2022-10-02T21:27:59.922Z,99627.59
2022-10-02T21:30:46.990Z,99636.78
2022-10-02T21:33:21.698Z,99645.38
2022-10-02T21:36:08.674Z,99636.63
2022-10-02T21:39:12.449Z,99653.03
2022-10-02T21:41:54.232Z,99647.97
2022-10-02T21:44:46.307Z,99648.06
2022-10-02T21:47:39.993Z,99653.25
2022-10-02T21:51:05.685Z,99656.16
2022-10-02T21:54:13.680Z,99653.69
2022-10-02T21:57:26.701Z,99662.44
2022-10-02T21:59:59.101Z,99660.81
2022-10-02T22:03:11.501Z,99661.75
2022-10-02T22:06:11.641Z,99655.16
2022-10-02T22:09:07.470Z,99667.06
2022-10-02T22:11:53.417Z,99665.41
2022-10-02T22:14:36.361Z,99648.84
2022-10-02T22:17:31.374Z,99655.44
2022-10-02T22:20:18.881Z,99669.56
2022-10-02T22:23:35.584Z,99668.94
2022-10-02T22:26:31.049Z,99660.78
2022-10-02T22:29:18.595Z,99675.19
2022-10-02T22:32:18.866Z,99681.28
2022-10-02T22:35:01.964Z,99676.25
2022-10-02T22:38:09.117Z,99688.19
2022-10-02T22:40:52.311Z,99685.59
2022-10-02T22:43:47.394Z,99692.28
2022-10-02T22:46:30.768Z,99699.38
2022-10-02T22:49:19.323Z,99695.53
2022-10-02T22:52:09.026Z,99692.28
2022-10-02T22:54:51.514Z,99694.06
2022-10-02T22:58:03.155Z,99701.16
2022-10-02T23:01:06.640Z,99705.59
2022-10-02T23:03:44.760Z,99702.84
2022-10-02T23:06:33.188Z,99706.50
2022-10-02T23:09:21.228Z,99679.81
2022-10-02T23:12:25.449Z,99696.69
2022-10-02T23:15:25.617Z,99709.84
2022-10-02T23:18:20.372Z,99698.44
2022-10-02T23:21:13.052Z,99711.19
2022-10-02T23:24:11.901Z,99711.09
2022-10-02T23:26:55.074Z,99699.19
2022-10-02T23:29:54.964Z,99707.78
2022-10-02T23:32:43.675Z,99691.88
2022-10-02T23:35:45.497Z,99712.41
2022-10-02T23:38:23.607Z,99721.13
2022-10-02T23:41:24.176Z,99725.19
2022-10-02T23:44:42.772Z,99716.63
2022-10-02T23:47:34.766Z,99717.75
2022-10-02T23:50:04.191Z,99718.44
2022-10-02T23:52:58.927Z,99720.97
2022-10-02T23:56:00.057Z,99727.88
2022-10-02T23:59:05.797Z,99725.59
